createdAt,value
2022-11-23T00:02:03.688Z,5.50
2022-11-23T00:04:31.030Z,5.60
2022-11-23T00:06:58.011Z,5.33
2022-11-23T00:09:31.928Z,7.73
2022-11-23T00:11:59.093Z,12.67
2022-11-23T00:14:26.210Z,12.63
2022-11-23T00:16:59.632Z,11.53
2022-11-23T00:19:33.009Z,6.10
2022-11-23T00:22:12.754Z,6.70
2022-11-23T00:24:39.837Z,10.67
2022-11-23T00:27:06.856Z,10.37
2022-11-23T00:29:40.611Z,7.40
2022-11-23T00:32:07.666Z,7.90
2022-11-23T00:34:34.692Z,11.93
2022-11-23T00:37:08.625Z,7.40
2022-11-23T00:39:35.652Z,10.77
2022-11-23T00:42:02.686Z,7.40
2022-11-23T00:44:38.626Z,5.40
2022-11-23T00:47:05.649Z,6.30
2022-11-23T00:49:32.855Z,7.37
2022-11-23T00:52:06.614Z,11.03
2022-11-23T00:54:33.621Z,5.57
2022-11-23T00:57:00.640Z,7.67
2022-11-23T00:59:35.607Z,6.23
2022-11-23T01:02:02.626Z,10.40
2022-11-23T01:04:29.716Z,9.70
2022-11-23T01:07:06.626Z,4.33
2022-11-23T01:09:33.853Z,6.07
2022-11-23T01:12:00.964Z,10.53
2022-11-23T01:14:34.682Z,6.43
2022-11-23T01:17:01.623Z,6.87
2022-11-23T01:19:41.644Z,11.40
2022-11-23T01:22:15.715Z,5.40
2022-11-23T01:24:49.657Z,7.47
2022-11-23T01:27:16.680Z,18.07
2022-11-23T01:29:43.695Z,7.83
2022-11-23T01:32:17.652Z,6.03
2022-11-23T01:34:44.626Z,15.17
2022-11-23T01:37:11.770Z,13.97
2022-11-23T01:39:45.618Z,6.57
2022-11-23T01:42:17.586Z,9.80
2022-11-23T01:44:45.119Z,9.80
2022-11-23T01:47:18.672Z,8.80
2022-11-23T01:49:51.800Z,6.13
2022-11-23T01:52:31.639Z,6.93
2022-11-23T01:55:03.866Z,5.60
2022-11-23T01:57:49.601Z,6.87
2022-11-23T02:00:16.820Z,9.70
2022-11-23T02:03:00.629Z,5.67
2022-11-23T02:05:46.682Z,7.50
2022-11-23T02:08:23.615Z,6.27
2022-11-23T02:10:50.819Z,8.33
2022-11-23T02:13:18.509Z,8.80
2022-11-23T02:15:51.665Z,6.87
2022-11-23T02:18:26.823Z,4.50
2022-11-23T02:21:09.628Z,7.03
2022-11-23T02:24:20.785Z,15.97
2022-11-23T02:26:54.648Z,9.93
2022-11-23T02:29:26.142Z,6.17
2022-11-23T02:32:01.700Z,9.17
2022-11-23T02:34:28.776Z,13.53
2022-11-23T02:36:57.787Z,9.40
2022-11-23T02:39:41.630Z,6.10
2022-11-23T02:42:08.597Z,8.57
2022-11-23T02:45:00.673Z,10.30
2022-11-23T02:47:27.802Z,12.97
2022-11-23T02:49:54.870Z,7.77
2022-11-23T02:52:28.642Z,10.73
2022-11-23T02:54:55.773Z,8.13
2022-11-23T02:57:22.844Z,10.77
2022-11-23T02:59:56.719Z,8.10
2022-11-23T03:02:23.779Z,10.20
2022-11-23T03:04:50.793Z,7.70
2022-11-23T03:07:24.659Z,7.80
2022-11-23T03:09:51.653Z,9.53
2022-11-23T03:12:18.622Z,6.77
2022-11-23T03:14:51.695Z,5.40
2022-11-23T03:17:18.950Z,6.07
2022-11-23T03:20:05.730Z,9.27
2022-11-23T03:22:34.242Z,12.00
2022-11-23T03:25:01.451Z,6.40
2022-11-23T03:27:35.658Z,7.00
2022-11-23T03:30:02.685Z,12.17
2022-11-23T03:32:29.613Z,8.97
2022-11-23T03:35:02.657Z,7.70
2022-11-23T03:37:29.662Z,9.97
2022-11-23T03:39:56.634Z,8.13
2022-11-23T03:42:29.637Z,9.30
2022-11-23T03:44:56.591Z,6.83
2022-11-23T03:47:23.654Z,8.63
2022-11-23T03:49:57.641Z,12.60
2022-11-23T03:52:24.644Z,12.53
2022-11-23T03:54:51.841Z,9.40
2022-11-23T03:57:27.666Z,5.57
2022-11-23T03:59:54.812Z,10.17
2022-11-23T04:02:21.834Z,7.47
2022-11-23T04:04:55.673Z,8.43
2022-11-23T04:07:22.772Z,10.73
2022-11-23T04:09:49.834Z,10.47
2022-11-23T04:12:23.637Z,11.97
2022-11-23T04:14:50.794Z,18.80
2022-11-23T04:17:18.310Z,7.43
2022-11-23T04:19:51.740Z,10.50
2022-11-23T04:22:25.480Z,7.20
2022-11-23T04:24:59.808Z,11.40
2022-11-23T04:27:27.452Z,11.47
2022-11-23T04:29:54.700Z,8.87
2022-11-23T04:32:28.713Z,14.30
2022-11-23T04:34:56.068Z,11.13
2022-11-23T04:37:23.332Z,12.13
2022-11-23T04:39:56.668Z,7.17
2022-11-23T04:42:24.024Z,9.10
2022-11-23T04:44:51.086Z,9.07
2022-11-23T04:47:24.636Z,8.60
2022-11-23T04:49:51.742Z,9.17
2022-11-23T04:52:18.751Z,15.40
2022-11-23T04:54:52.665Z,10.30
2022-11-23T04:57:19.780Z,13.33
2022-11-23T04:59:46.855Z,10.10
2022-11-23T05:02:20.662Z,10.97
2022-11-23T05:04:47.777Z,7.87
2022-11-23T05:07:15.030Z,10.87
2022-11-23T05:09:48.658Z,9.53
2022-11-23T05:12:15.635Z,7.10
2022-11-23T05:14:43.272Z,4.70
2022-11-23T05:17:16.674Z,13.77
2022-11-23T05:19:50.194Z,9.53
2022-11-23T05:22:23.714Z,8.60
2022-11-23T05:24:50.758Z,15.40
2022-11-23T05:27:17.788Z,14.00
2022-11-23T05:29:51.725Z,15.10
2022-11-23T05:32:18.811Z,6.97
2022-11-23T05:34:45.901Z,13.53
2022-11-23T05:37:19.693Z,13.33
2022-11-23T05:39:46.911Z,8.40
2022-11-23T05:42:13.920Z,11.00
2022-11-23T05:44:47.679Z,20.77
2022-11-23T05:47:14.776Z,9.67
2022-11-23T05:49:41.713Z,14.77
2022-11-23T05:52:15.667Z,15.63
2022-11-23T05:54:42.843Z,18.03
2022-11-23T05:57:10.443Z,20.57
2022-11-23T05:59:43.659Z,14.47
2022-11-23T06:02:10.587Z,12.57
2022-11-23T06:04:50.658Z,18.23
2022-11-23T06:07:17.685Z,12.27
2022-11-23T06:09:44.716Z,14.37
2022-11-23T06:12:18.740Z,13.57
2022-11-23T06:14:45.881Z,15.90
2022-11-23T06:17:12.918Z,11.40
2022-11-23T06:19:46.683Z,18.77
2022-11-23T06:22:20.741Z,15.40
2022-11-23T06:24:54.727Z,16.20
2022-11-23T06:27:21.881Z,16.23
2022-11-23T06:29:48.958Z,16.40
2022-11-23T06:32:25.016Z,10.73
2022-11-23T06:34:52.019Z,15.57
2022-11-23T06:37:20.120Z,11.60
2022-11-23T06:39:53.687Z,12.77
2022-11-23T06:45:15.745Z,13.93
2022-11-23T06:47:43.855Z,18.23
2022-11-23T06:50:11.346Z,14.77
2022-11-23T06:52:44.663Z,15.03
2022-11-23T06:55:11.620Z,17.40
2022-11-23T06:57:38.574Z,14.80
2022-11-23T07:00:13.746Z,14.63
2022-11-23T07:02:40.860Z,14.07
2022-11-23T07:05:08.945Z,9.00
2022-11-23T07:07:42.758Z,10.50
2022-11-23T07:10:10.276Z,11.07
2022-11-23T07:12:37.354Z,13.27
2022-11-23T07:15:11.715Z,11.97
2022-11-23T07:17:40.579Z,14.87
2022-11-23T07:20:28.814Z,13.83
2022-11-23T07:23:07.760Z,15.00
2022-11-23T07:25:44.723Z,10.80
2022-11-23T07:28:14.524Z,21.70
2022-11-23T07:30:43.686Z,13.03
2022-11-23T07:33:19.767Z,13.27
2022-11-23T07:35:47.577Z,12.87
2022-11-23T07:38:15.158Z,11.20
2022-11-23T07:40:55.722Z,11.33
2022-11-23T07:43:22.932Z,13.07
2022-11-23T07:45:49.985Z,10.20
2022-11-23T07:48:24.763Z,10.23
2022-11-23T07:50:55.550Z,19.77
2022-11-23T07:53:24.130Z,10.90
2022-11-23T07:56:04.728Z,10.60
2022-11-23T07:58:33.249Z,13.03
2022-11-23T08:01:00.517Z,11.33
2022-11-23T08:03:33.754Z,21.33
2022-11-23T08:06:01.025Z,10.13
2022-11-23T08:08:28.074Z,14.80
2022-11-23T08:11:01.757Z,9.37
2022-11-23T08:13:28.846Z,12.97
2022-11-23T08:15:57.229Z,6.53
2022-11-23T08:18:31.825Z,9.27
2022-11-23T08:21:19.675Z,14.53
2022-11-23T08:23:53.774Z,13.43
2022-11-23T08:26:21.157Z,8.03
2022-11-23T08:28:48.862Z,10.87
2022-11-23T08:31:22.723Z,10.03
2022-11-23T08:33:50.035Z,11.17
2022-11-23T08:36:17.273Z,10.07
2022-11-23T08:38:50.824Z,11.03
2022-11-23T08:41:21.879Z,10.40
2022-11-23T08:43:49.431Z,14.10
2022-11-23T08:46:23.747Z,5.23
2022-11-23T08:48:50.816Z,11.13
2022-11-23T08:51:22.683Z,7.57
2022-11-23T08:53:57.846Z,7.47
2022-11-23T08:56:25.481Z,4.67
2022-11-23T08:58:52.871Z,12.40
2022-11-23T09:01:26.745Z,5.00
2022-11-23T09:03:55.079Z,6.57
2022-11-23T09:06:35.915Z,3.80
2022-11-23T09:09:04.023Z,7.80
2022-11-23T09:11:31.100Z,7.17
2022-11-23T09:14:05.762Z,5.53
2022-11-23T09:16:34.180Z,5.30
2022-11-23T09:19:02.518Z,7.90
2022-11-23T09:21:39.701Z,8.02
2022-11-23T09:24:07.585Z,7.88
2022-11-23T09:26:35.053Z,6.97
2022-11-23T09:29:08.747Z,5.32
2022-11-23T09:31:39.553Z,6.47
2022-11-23T09:34:07.349Z,4.72
2022-11-23T09:36:40.848Z,5.97
2022-11-23T09:39:08.631Z,5.75
2022-11-23T09:42:08.778Z,7.95
2022-11-23T09:45:06.761Z,3.03
2022-11-23T09:47:56.898Z,5.07
2022-11-23T09:50:59.040Z,8.43
2022-11-23T09:53:50.843Z,6.28
2022-11-23T09:56:30.138Z,4.55
2022-11-23T09:59:11.354Z,4.78
2022-11-23T10:01:38.929Z,3.38
2022-11-23T10:04:22.925Z,4.97
2022-11-23T10:07:03.529Z,5.72
2022-11-23T10:10:14.788Z,4.43
2022-11-23T10:13:31.644Z,3.97
2022-11-23T10:16:43.835Z,4.75
2022-11-23T10:19:49.182Z,3.53
2022-11-23T10:23:02.865Z,4.70
2022-11-23T10:25:46.020Z,4.30
2022-11-23T10:28:22.855Z,3.95
2022-11-23T10:31:26.098Z,4.45
2022-11-23T10:34:20.774Z,2.13
2022-11-23T10:36:48.207Z,5.50
2022-11-23T10:39:34.760Z,3.30
2022-11-23T10:42:23.182Z,1.65
2022-11-23T10:44:58.775Z,5.20
2022-11-23T10:47:38.050Z,4.47
2022-11-23T10:50:28.729Z,1.60
2022-11-23T10:53:10.166Z,5.00
2022-11-23T10:56:18.776Z,3.92
2022-11-23T10:58:47.076Z,3.83
2022-11-23T11:01:30.842Z,5.65
2022-11-23T11:04:07.026Z,5.47
2022-11-23T11:06:42.820Z,3.67
2022-11-23T11:09:21.284Z,2.95
2022-11-23T11:11:58.788Z,2.05
2022-11-23T11:14:26.361Z,6.40
2022-11-23T11:16:56.093Z,3.58
2022-11-23T11:19:32.761Z,3.65
2022-11-23T11:22:08.891Z,2.38
2022-11-23T11:24:50.793Z,7.20
2022-11-23T11:27:23.076Z,3.05
2022-11-23T11:30:04.761Z,2.25
2022-11-23T11:33:07.426Z,5.75
2022-11-23T11:35:52.878Z,2.53
2022-11-23T11:38:31.650Z,3.42
2022-11-23T11:41:18.790Z,2.65
2022-11-23T11:44:13.011Z,4.18
2022-11-23T11:46:54.796Z,5.93
2022-11-23T11:49:39.999Z,2.90
2022-11-23T11:52:25.785Z,4.22
2022-11-23T11:54:56.459Z,2.08
2022-11-23T11:57:39.782Z,3.45
2022-11-23T12:00:14.714Z,5.55
2022-11-23T12:03:10.833Z,4.93
2022-11-23T12:05:49.174Z,3.25
2022-11-23T12:08:50.850Z,5.55
2022-11-23T12:11:19.614Z,3.85
2022-11-23T12:13:47.350Z,5.07
2022-11-23T12:17:24.927Z,4.63
2022-11-23T12:19:54.217Z,5.38
2022-11-23T12:23:12.842Z,4.75
2022-11-23T12:25:54.178Z,2.60
2022-11-23T12:29:07.811Z,4.20
2022-11-23T12:31:50.647Z,5.38
2022-11-23T12:34:31.159Z,4.15
2022-11-23T12:37:25.518Z,4.43
2022-11-23T12:40:33.795Z,4.75
2022-11-23T12:43:36.756Z,4.30
2022-11-23T12:46:34.892Z,4.85
2022-11-23T12:49:46.695Z,4.25
2022-11-23T12:52:37.823Z,4.22
2022-11-23T12:55:20.421Z,6.80
2022-11-23T12:58:24.785Z,2.70
2022-11-23T13:01:00.672Z,4.63
2022-11-23T13:04:19.786Z,2.78
2022-11-23T13:07:31.695Z,2.25
2022-11-23T13:10:31.824Z,2.22
2022-11-23T13:13:23.838Z,4.20
2022-11-23T13:16:35.233Z,2.42
2022-11-23T13:19:40.822Z,5.57
2022-11-23T13:22:31.819Z,3.42
2022-11-23T13:25:23.923Z,4.22
2022-11-23T13:27:57.847Z,3.72
2022-11-23T13:31:13.261Z,4.47
2022-11-23T13:33:37.387Z,3.60
2022-11-23T13:36:11.354Z,3.42
2022-11-23T13:38:50.934Z,2.88
2022-11-23T13:41:38.158Z,3.75
2022-11-23T13:44:26.889Z,3.13
2022-11-23T13:47:03.266Z,3.88
2022-11-23T13:49:52.949Z,6.78
2022-11-23T13:52:22.839Z,3.20
2022-11-23T13:55:18.899Z,1.35
2022-11-23T13:58:23.053Z,2.35
2022-11-23T14:00:59.900Z,1.95
2022-11-23T14:03:50.300Z,2.65
2022-11-23T14:06:47.807Z,2.53
2022-11-23T14:09:33.170Z,2.38
2022-11-23T14:12:18.812Z,3.67
2022-11-23T14:15:23.632Z,3.40
2022-11-23T14:18:17.913Z,1.70
2022-11-23T14:21:39.950Z,4.73
2022-11-23T14:24:40.914Z,1.63
2022-11-23T14:27:48.108Z,8.20
2022-11-23T14:30:49.813Z,3.87
2022-11-23T14:33:48.024Z,5.77
2022-11-23T14:36:24.891Z,2.87
2022-11-23T14:39:10.696Z,5.50
2022-11-23T14:41:47.808Z,2.70
2022-11-23T14:44:16.662Z,3.73
2022-11-23T14:47:11.021Z,2.17
2022-11-23T14:49:51.167Z,2.37
2022-11-23T14:52:41.829Z,5.53
2022-11-23T14:55:26.678Z,1.47
2022-11-23T14:58:06.867Z,2.10
2022-11-23T15:00:43.828Z,2.40
2022-11-23T15:06:18.786Z,7.17
2022-11-23T15:09:38.879Z,2.47
2022-11-23T15:12:20.536Z,2.80
2022-11-23T15:14:54.812Z,2.33
2022-11-23T15:17:23.475Z,3.27
2022-11-23T15:20:06.830Z,9.10
2022-11-23T15:22:44.307Z,4.20
2022-11-23T15:25:25.794Z,2.33
2022-11-23T15:27:52.893Z,2.60
2022-11-23T15:30:37.779Z,3.80
2022-11-23T15:33:12.007Z,4.17
2022-11-23T15:35:47.818Z,4.07
2022-11-23T15:38:22.078Z,7.37
2022-11-23T15:40:57.882Z,2.90
2022-11-23T15:43:24.904Z,4.33
2022-11-23T15:45:52.034Z,1.73
2022-11-23T15:48:41.856Z,1.70
2022-11-23T15:51:24.854Z,3.67
2022-11-23T15:53:59.887Z,1.50
2022-11-23T15:56:37.416Z,3.63
2022-11-23T15:59:51.840Z,4.37
2022-11-23T16:02:25.055Z,2.23
2022-11-23T16:05:22.878Z,2.53
2022-11-23T16:08:02.617Z,3.13
2022-11-23T16:10:41.781Z,5.17
2022-11-23T16:17:42.952Z,4.70
2022-11-23T16:20:17.463Z,3.23
2022-11-23T16:23:03.855Z,2.87
2022-11-23T16:25:34.366Z,4.83
2022-11-23T16:28:12.803Z,3.23
2022-11-23T16:30:46.456Z,3.53
2022-11-23T16:33:22.856Z,2.97
2022-11-23T16:35:50.447Z,3.20
2022-11-23T16:38:18.414Z,3.37
2022-11-23T16:40:54.821Z,2.30
2022-11-23T16:43:22.253Z,4.03
2022-11-23T16:46:03.074Z,1.30
2022-11-23T16:48:42.050Z,4.67
2022-11-23T16:51:21.275Z,2.63
2022-11-23T16:54:12.514Z,16.47
2022-11-23T16:56:42.833Z,5.20
2022-11-23T16:59:18.620Z,9.83
2022-11-23T17:01:57.703Z,4.63
2022-11-23T17:04:28.097Z,3.27
2022-11-23T17:06:55.237Z,9.13
2022-11-23T17:09:28.809Z,5.90
2022-11-23T17:11:56.396Z,4.53
2022-11-23T17:14:29.596Z,6.53
2022-11-23T17:17:03.827Z,3.63
2022-11-23T17:19:31.387Z,4.27
2022-11-23T17:22:12.853Z,5.50
2022-11-23T17:24:39.809Z,4.50
2022-11-23T17:27:07.030Z,4.57
2022-11-23T17:29:42.345Z,2.03
2022-11-23T17:32:14.877Z,2.63
2022-11-23T17:34:48.848Z,4.90
2022-11-23T17:37:21.607Z,3.50
2022-11-23T17:39:56.981Z,4.40
2022-11-23T17:42:24.730Z,6.47
2022-11-23T17:44:52.971Z,1.83
2022-11-23T17:47:39.275Z,6.30
2022-11-23T17:50:10.967Z,7.90
2022-11-23T17:52:47.117Z,8.53
2022-11-23T17:55:15.751Z,7.03
2022-11-23T17:57:44.194Z,4.37
2022-11-23T18:00:27.812Z,2.90
2022-11-23T18:03:01.326Z,3.57
2022-11-23T18:05:36.822Z,4.23
2022-11-23T18:08:03.841Z,3.47
2022-11-23T18:10:30.848Z,5.60
2022-11-23T18:13:04.834Z,4.83
2022-11-23T18:15:32.351Z,3.23
2022-11-23T18:18:04.421Z,2.33
2022-11-23T18:20:38.816Z,3.03
2022-11-23T18:23:11.889Z,2.73
2022-11-23T18:25:45.822Z,2.00
2022-11-23T18:28:16.024Z,4.93
2022-11-23T18:30:54.852Z,2.10
2022-11-23T18:33:23.393Z,2.23
2022-11-23T18:35:51.255Z,3.23
2022-11-23T18:38:24.831Z,1.30
2022-11-23T18:40:51.965Z,1.33
2022-11-23T18:43:18.994Z,1.90
2022-11-23T18:45:52.923Z,1.17
2022-11-23T18:48:20.183Z,1.70
2022-11-23T18:50:47.342Z,2.50
2022-11-23T18:53:21.856Z,1.90
2022-11-23T18:55:49.639Z,0.80
2022-11-23T18:58:17.960Z,0.70
2022-11-23T19:00:51.824Z,0.80
2022-11-23T19:03:18.975Z,2.20
2022-11-23T19:05:45.973Z,1.63
2022-11-23T19:08:19.868Z,1.00
2022-11-23T19:10:47.292Z,2.80
2022-11-23T19:13:14.390Z,1.80
2022-11-23T19:15:47.994Z,4.50
2022-11-23T19:18:15.026Z,3.77
2022-11-23T19:20:42.155Z,7.40
2022-11-23T19:23:16.048Z,5.00
2022-11-23T19:25:43.025Z,6.70
2022-11-23T19:28:10.073Z,4.70
2022-11-23T19:30:44.914Z,5.33
2022-11-23T19:33:11.948Z,12.23
2022-11-23T19:35:39.410Z,7.87
2022-11-23T19:38:12.903Z,8.87
2022-11-23T19:40:40.572Z,12.50
2022-11-23T19:43:07.892Z,9.73
2022-11-23T19:45:41.866Z,11.33
2022-11-23T19:48:09.107Z,9.27
2022-11-23T19:50:36.555Z,9.70
2022-11-23T19:53:12.700Z,11.33
2022-11-23T19:55:41.391Z,11.17
2022-11-23T19:58:08.416Z,8.87
2022-11-23T20:00:43.886Z,11.57
2022-11-23T20:03:11.333Z,10.73
2022-11-23T20:05:38.690Z,15.47
2022-11-23T20:08:12.862Z,6.97
2022-11-23T20:10:39.901Z,16.63
2022-11-23T20:13:07.053Z,18.03
2022-11-23T20:15:40.926Z,11.17
2022-11-23T20:18:08.185Z,23.37
2022-11-23T20:20:48.857Z,8.97
2022-11-23T20:23:35.896Z,22.77
2022-11-23T20:26:10.085Z,11.83
2022-11-23T20:28:37.555Z,18.33
2022-11-23T20:31:07.758Z,13.63
2022-11-23T20:33:42.114Z,19.47
2022-11-23T20:36:21.085Z,11.97
2022-11-23T20:38:55.879Z,15.73
2022-11-23T20:41:29.966Z,13.07
2022-11-23T20:44:07.989Z,13.40
2022-11-23T20:49:28.897Z,13.10
2022-11-23T20:51:56.043Z,19.33
2022-11-23T20:54:23.828Z,9.23
2022-11-23T20:56:57.875Z,20.90
2022-11-23T20:59:25.022Z,12.83
2022-11-23T21:01:52.604Z,19.40
2022-11-23T21:04:26.003Z,20.60
2022-11-23T21:06:53.105Z,23.97
2022-11-23T21:09:20.323Z,17.10
2022-11-23T21:12:12.907Z,14.00
2022-11-23T21:14:40.303Z,14.20
2022-11-23T21:17:07.439Z,13.17
2022-11-23T21:19:45.908Z,11.33
2022-11-23T21:22:19.616Z,22.77
2022-11-23T21:24:52.879Z,11.97
2022-11-23T21:27:23.358Z,20.20
2022-11-23T21:29:51.506Z,11.70
2022-11-23T21:32:24.918Z,17.93
2022-11-23T21:34:51.940Z,14.70
2022-11-23T21:37:19.007Z,16.10
2022-11-23T21:39:53.325Z,16.40
2022-11-23T21:42:20.416Z,16.40
2022-11-23T21:44:47.357Z,11.30
2022-11-23T21:47:20.860Z,15.97
2022-11-23T21:49:48.029Z,14.60
2022-11-23T21:52:15.047Z,18.10
2022-11-23T21:54:49.343Z,20.00
2022-11-23T21:57:16.476Z,21.07
2022-11-23T21:59:43.447Z,13.60
2022-11-23T22:02:18.899Z,17.57
2022-11-23T22:04:45.931Z,20.67
2022-11-23T22:07:13.250Z,16.47
2022-11-23T22:09:46.857Z,25.03
2022-11-23T22:12:13.905Z,19.77
2022-11-23T22:14:41.105Z,12.03
2022-11-23T22:17:14.935Z,21.80
2022-11-23T22:19:42.276Z,13.07
2022-11-23T22:22:22.910Z,21.37
2022-11-23T22:24:56.692Z,16.10
2022-11-23T22:27:29.876Z,13.33
2022-11-23T22:29:56.930Z,15.03
2022-11-23T22:32:24.022Z,21.07
2022-11-23T22:34:57.934Z,12.57
2022-11-23T22:37:25.002Z,16.20
2022-11-23T22:39:52.077Z,15.97
2022-11-23T22:42:25.855Z,13.60
2022-11-23T22:44:52.989Z,19.73
2022-11-23T22:47:20.013Z,17.83
2022-11-23T22:49:53.894Z,18.10
2022-11-23T22:52:20.884Z,14.47
2022-11-23T22:54:47.908Z,23.97
2022-11-23T22:57:21.892Z,20.00
2022-11-23T22:59:49.028Z,19.07
2022-11-23T23:02:16.017Z,20.17
2022-11-23T23:04:49.906Z,25.43
2022-11-23T23:07:16.937Z,16.07
2022-11-23T23:09:43.932Z,14.63
2022-11-23T23:12:18.070Z,21.93
2022-11-23T23:14:45.103Z,14.50
2022-11-23T23:17:12.068Z,16.40
2022-11-23T23:19:45.861Z,23.20
2022-11-23T23:22:19.780Z,16.13
2022-11-23T23:25:02.171Z,21.00
2022-11-23T23:27:32.354Z,18.33
2022-11-23T23:30:08.877Z,22.93
2022-11-23T23:32:35.881Z,19.37
2022-11-23T23:35:02.946Z,20.37
2022-11-23T23:37:37.864Z,18.03
2022-11-23T23:40:06.376Z,14.97
2022-11-23T23:42:34.077Z,15.93
2022-11-23T23:45:09.003Z,16.33
2022-11-23T23:47:36.064Z,11.53
2022-11-23T23:50:03.298Z,15.93
2022-11-23T23:52:36.867Z,14.47
2022-11-23T23:55:04.632Z,14.63
2022-11-23T23:57:31.730Z,15.80
